Time;durP1;ratioP1;P1;durP2;ratioP2;P2;SDS_P1;SDS_P2;PMS_P1;PMS_P2;Temp;Humidity;BMP_temperature;BMP_pressure;BME280_temperature;BME280_humidity;BME280_pressure;Samples;Min_cycle;Max_cycle;Signal;HPM_P1;HPM_P2
2023/12/26 00:02:16;;;;;;;5.27;2.67;;;9.10;74.80;;;;;;5032735;28;20420;-71
2023/12/26 00:04:42;;;;;;;5.07;2.30;;;9.10;74.90;;;;;;5034030;28;20185;-71
2023/12/26 00:07:08;;;;;;;4.23;2.20;;;9.10;74.90;;;;;;5029244;28;20477;-71
2023/12/26 00:09:33;;;;;;;4.87;2.33;;;9.10;75.10;;;;;;5063151;23;20668;-71
2023/12/26 00:11:59;;;;;;;2.90;1.80;;;9.10;75.10;;;;;;5016041;28;20193;-69
2023/12/26 00:14:25;;;;;;;6.00;2.20;;;9.10;75.20;;;;;;5027021;28;20533;-70
2023/12/26 00:16:50;;;;;;;6.93;2.40;;;9.00;75.50;;;;;;5030571;28;20185;-70
2023/12/26 00:19:16;;;;;;;5.43;2.10;;;9.00;75.70;;;;;;5030258;28;20702;-70
2023/12/26 00:21:41;;;;;;;3.30;1.70;;;9.00;75.70;;;;;;5024299;28;20233;-69
2023/12/26 00:24:07;;;;;;;6.33;1.93;;;9.00;75.70;;;;;;5020086;28;20568;-70
2023/12/26 00:26:36;;;;;;;3.83;1.60;;;9.00;75.70;;;;;;5027945;28;20193;-70
2023/12/26 00:29:01;;;;;;;3.90;1.90;;;9.00;75.80;;;;;;5022225;28;20424;-69
2023/12/26 00:31:27;;;;;;;3.33;1.97;;;9.00;75.80;;;;;;5024933;28;20520;-69
2023/12/26 00:33:53;;;;;;;4.00;2.20;;;9.00;75.90;;;;;;5019081;28;20713;-70
2023/12/26 00:36:19;;;;;;;5.33;2.40;;;9.00;75.80;;;;;;5026041;28;20181;-68
2023/12/26 00:38:46;;;;;;;3.47;1.80;;;8.90;75.90;;;;;;5027639;28;21035;-69
2023/12/26 00:41:15;;;;;;;3.97;2.40;;;9.00;75.90;;;;;;5025779;28;20224;-70
2023/12/26 00:43:41;;;;;;;2.63;1.67;;;9.00;75.80;;;;;;5019405;28;20527;-70
2023/12/26 00:46:07;;;;;;;7.03;2.07;;;9.00;75.80;;;;;;5030917;28;20534;-70
2023/12/26 00:48:34;;;;;;;3.60;2.27;;;9.00;75.90;;;;;;5027200;28;20193;-69
2023/12/26 00:50:59;;;;;;;5.53;2.07;;;9.00;76.10;;;;;;5012227;28;20530;-70
2023/12/26 00:53:25;;;;;;;6.07;2.07;;;9.00;76.10;;;;;;5017486;28;20433;-70
2023/12/26 00:55:51;;;;;;;4.70;2.23;;;9.00;76.10;;;;;;5030777;28;20456;-71
2023/12/26 00:58:16;;;;;;;3.70;1.80;;;8.90;76.10;;;;;;5022227;28;20858;-70
2023/12/26 01:00:42;;;;;;;6.97;2.00;;;8.90;76.20;;;;;;5020487;28;20222;-70
2023/12/26 01:03:09;;;;;;;3.60;1.93;;;8.90;76.20;;;;;;5016253;28;20186;-72
2023/12/26 01:05:35;;;;;;;3.80;1.53;;;8.90;76.40;;;;;;5028904;28;20257;-70
2023/12/26 01:08:00;;;;;;;4.13;1.83;;;8.90;76.20;;;;;;5031085;28;20488;-69
2023/12/26 01:10:26;;;;;;;4.40;1.60;;;8.90;76.20;;;;;;5029545;28;20576;-69
2023/12/26 01:12:52;;;;;;;2.80;1.80;;;8.90;76.10;;;;;;5024785;28;20191;-70
2023/12/26 01:15:18;;;;;;;4.17;2.20;;;8.90;76.20;;;;;;5029752;28;20181;-69
2023/12/26 01:17:44;;;;;;;4.30;1.90;;;8.90;76.10;;;;;;5027190;28;20193;-72
2023/12/26 01:20:10;;;;;;;2.97;1.80;;;8.90;76.20;;;;;;5025115;28;20818;-71
2023/12/26 01:22:36;;;;;;;3.80;2.03;;;8.90;76.40;;;;;;5024817;28;20471;-68
2023/12/26 01:25:02;;;;;;;2.43;1.80;;;8.90;76.10;;;;;;5028603;28;21010;-70
2023/12/26 01:27:28;;;;;;;4.23;1.77;;;8.90;76.10;;;;;;5030386;28;20278;-69
2023/12/26 01:29:53;;;;;;;3.80;1.90;;;8.90;75.90;;;;;;5040247;28;20541;-71
2023/12/26 01:32:19;;;;;;;4.57;2.03;;;8.90;76.40;;;;;;5025956;28;20178;-71
2023/12/26 01:34:45;;;;;;;4.53;2.10;;;8.90;76.10;;;;;;5025070;28;20652;-70
2023/12/26 01:37:10;;;;;;;4.43;2.10;;;8.90;76.20;;;;;;5024237;28;20189;-71
2023/12/26 01:39:36;;;;;;;4.20;2.03;;;8.80;76.20;;;;;;5027746;28;20189;-72
2023/12/26 01:42:02;;;;;;;5.17;2.07;;;8.80;76.70;;;;;;5016589;28;20235;-71
2023/12/26 01:44:27;;;;;;;4.30;2.23;;;8.90;76.20;;;;;;5023705;28;20184;-71
2023/12/26 01:46:54;;;;;;;5.87;1.93;;;8.90;76.10;;;;;;5027647;28;20189;-70
2023/12/26 01:49:20;;;;;;;6.27;2.97;;;8.80;76.10;;;;;;5025344;28;20212;-68
2023/12/26 01:51:48;;;;;;;2.57;1.70;;;8.80;76.20;;;;;;5012520;28;20568;-70
2023/12/26 01:54:14;;;;;;;2.80;1.70;;;8.80;76.10;;;;;;5020307;28;20177;-69
2023/12/26 01:56:40;;;;;;;10.90;2.77;;;8.80;75.80;;;;;;5027224;28;20429;-70
2023/12/26 01:59:07;;;;;;;2.93;1.80;;;8.80;75.80;;;;;;5028618;28;21125;-70
2023/12/26 02:01:34;;;;;;;3.00;1.80;;;8.80;75.80;;;;;;5013172;28;20493;-70
2023/12/26 02:04:01;;;;;;;2.30;1.60;;;8.80;75.80;;;;;;5020930;28;20432;-70
2023/12/26 02:06:30;;;;;;;6.50;2.00;;;8.80;76.20;;;;;;5024798;28;20421;-70
2023/12/26 02:08:56;;;;;;;5.13;2.13;;;8.90;75.80;;;;;;5022870;28;20427;-70
2023/12/26 02:11:22;;;;;;;3.47;2.23;;;8.90;75.70;;;;;;5020720;28;21006;-70
2023/12/26 02:13:48;;;;;;;2.77;1.67;;;8.90;75.70;;;;;;5026130;28;20434;-70
2023/12/26 02:16:18;;;;;;;5.87;1.70;;;8.80;75.50;;;;;;5028933;28;20521;-69
2023/12/26 02:18:44;;;;;;;4.50;2.10;;;8.80;75.50;;;;;;5029464;28;20197;-71
2023/12/26 02:21:10;;;;;;;5.27;2.00;;;8.80;75.20;;;;;;5024527;28;20476;-71
2023/12/26 02:23:37;;;;;;;7.30;1.77;;;8.80;75.40;;;;;;5024643;28;20983;-68
2023/12/26 02:26:03;;;;;;;5.07;2.00;;;8.80;75.40;;;;;;5028291;28;20956;-71
2023/12/26 02:28:30;;;;;;;8.30;1.80;;;8.80;75.20;;;;;;5025437;28;20490;-70
2023/12/26 02:30:58;;;;;;;6.33;1.90;;;8.80;75.20;;;;;;5024194;28;20463;-69
2023/12/26 02:33:24;;;;;;;4.07;1.73;;;8.80;75.10;;;;;;5017946;28;20429;-69
2023/12/26 02:35:49;;;;;;;3.30;1.63;;;8.80;75.20;;;;;;5025679;28;20416;-70
2023/12/26 02:38:15;;;;;;;3.40;2.47;;;8.80;74.90;;;;;;5027200;28;20564;-70
2023/12/26 02:40:41;;;;;;;3.30;1.80;;;8.80;75.20;;;;;;5026162;28;20221;-70
2023/12/26 02:43:06;;;;;;;3.33;1.97;;;8.80;74.90;;;;;;5022438;28;20255;-69
2023/12/26 02:45:32;;;;;;;3.20;1.90;;;8.80;75.10;;;;;;5028450;28;20200;-70
2023/12/26 02:47:57;;;;;;;3.40;1.87;;;8.80;74.80;;;;;;5029562;28;20177;-69
2023/12/26 02:50:23;;;;;;;3.07;1.63;;;8.80;74.80;;;;;;5019942;28;20224;-72
2023/12/26 02:52:49;;;;;;;3.67;1.87;;;8.80;74.80;;;;;;5013249;28;20685;-69
2023/12/26 02:55:14;;;;;;;4.47;1.53;;;8.80;74.80;;;;;;5028504;28;20226;-70
2023/12/26 02:57:40;;;;;;;2.30;1.70;;;8.90;74.20;;;;;;5025887;28;20275;-71
2023/12/26 03:00:06;;;;;;;3.93;2.10;;;8.90;74.30;;;;;;5022972;28;20698;-69
2023/12/26 03:02:34;;;;;;;3.70;1.43;;;8.90;73.90;;;;;;5027306;28;20792;-69
2023/12/26 03:04:59;;;;;;;7.43;1.83;;;8.90;73.70;;;;;;5028382;28;20428;-69
2023/12/26 03:07:25;;;;;;;3.80;1.83;;;8.90;73.90;;;;;;5028423;28;20526;-69
2023/12/26 03:09:52;;;;;;;1.63;1.17;;;8.90;73.50;;;;;;5026785;28;20208;-70
2023/12/26 03:12:18;;;;;;;3.83;1.83;;;8.90;73.50;;;;;;5024533;28;20201;-69
2023/12/26 03:14:43;;;;;;;2.43;1.40;;;9.00;73.00;;;;;;5028416;28;20566;-70
2023/12/26 03:17:09;;;;;;;2.90;1.60;;;9.00;73.00;;;;;;5026760;28;20173;-70
2023/12/26 03:19:35;;;;;;;2.10;1.60;;;9.00;73.00;;;;;;5027596;28;20193;-69
2023/12/26 03:22:00;;;;;;;2.07;1.40;;;9.00;73.00;;;;;;5023189;28;20665;-69
2023/12/26 03:24:27;;;;;;;1.83;1.57;;;9.00;72.70;;;;;;5025945;28;20182;-70
2023/12/26 03:26:52;;;;;;;6.43;2.00;;;9.10;72.60;;;;;;5029734;28;20196;-69
2023/12/26 03:29:18;;;;;;;2.93;1.80;;;9.10;72.60;;;;;;5027786;28;20796;-70
2023/12/26 03:31:44;;;;;;;1.90;1.60;;;9.10;72.40;;;;;;5025406;28;20385;-70
2023/12/26 03:34:11;;;;;;;2.80;1.57;;;9.10;72.10;;;;;;5024760;28;20840;-70
2023/12/26 03:36:45;;;;;;;8.43;1.63;;;9.00;72.10;;;;;;5031608;28;20418;-70
2023/12/26 03:39:11;;;;;;;3.83;1.90;;;8.90;72.40;;;;;;5028386;28;20420;-70
2023/12/26 03:41:37;;;;;;;3.43;1.70;;;9.00;72.10;;;;;;5026426;28;20530;-69
2023/12/26 03:44:03;;;;;;;3.90;1.90;;;9.00;72.10;;;;;;5016182;28;20196;-69
2023/12/26 03:46:28;;;;;;;3.70;2.03;;;9.00;72.10;;;;;;5035512;28;20264;-70
2023/12/26 03:48:54;;;;;;;5.83;2.07;;;9.00;72.00;;;;;;5024573;28;20415;-70
2023/12/26 03:51:19;;;;;;;2.20;1.70;;;9.00;72.10;;;;;;5028900;28;20205;-69
2023/12/26 03:53:46;;;;;;;8.23;2.00;;;9.00;72.10;;;;;;5028206;28;20203;-70
2023/12/26 03:56:11;;;;;;;4.23;1.90;;;9.00;72.10;;;;;;5034076;28;20260;-69
2023/12/26 03:58:37;;;;;;;3.93;1.90;;;9.00;72.00;;;;;;5036595;28;20442;-69
2023/12/26 04:01:03;;;;;;;2.83;1.63;;;9.10;71.80;;;;;;5033004;28;20216;-70
2023/12/26 04:03:28;;;;;;;4.67;1.50;;;9.10;71.80;;;;;;5030026;28;20196;-69
2023/12/26 04:05:55;;;;;;;3.10;2.10;;;9.00;72.00;;;;;;5035217;28;20181;-70
2023/12/26 04:08:21;;;;;;;2.90;1.93;;;9.00;72.00;;;;;;5029993;28;20201;-70
2023/12/26 04:10:46;;;;;;;4.03;1.67;;;9.00;71.80;;;;;;5021163;28;20499;-74
2023/12/26 04:13:12;;;;;;;4.90;1.70;;;9.10;71.80;;;;;;5024373;28;20604;-69
2023/12/26 04:15:38;;;;;;;3.30;1.63;;;9.00;71.80;;;;;;5028935;28;20250;-69
2023/12/26 04:18:04;;;;;;;4.10;1.97;;;9.00;72.00;;;;;;5026832;28;20193;-69
2023/12/26 04:20:29;;;;;;;4.40;1.73;;;8.90;72.10;;;;;;5020202;28;20235;-71
2023/12/26 04:22:55;;;;;;;4.33;2.20;;;8.90;72.10;;;;;;5025773;28;20902;-69
2023/12/26 04:25:22;;;;;;;2.17;1.50;;;8.90;72.30;;;;;;5031597;28;20186;-70
2023/12/26 04:27:48;;;;;;;8.70;1.80;;;8.90;72.10;;;;;;5023383;28;20180;-69
2023/12/26 04:30:15;;;;;;;3.80;1.70;;;8.90;72.10;;;;;;5019293;28;20461;-69
2023/12/26 04:32:40;;;;;;;6.60;2.00;;;9.00;72.00;;;;;;5027018;28;20650;-70
2023/12/26 04:35:06;;;;;;;11.60;1.90;;;9.00;71.70;;;;;;5033752;28;20424;-70
2023/12/26 04:37:32;;;;;;;4.50;2.20;;;9.00;71.60;;;;;;5036491;28;20208;-70
2023/12/26 04:39:57;;;;;;;2.60;1.67;;;9.10;71.70;;;;;;5023823;28;20206;-68
2023/12/26 04:42:23;;;;;;;2.80;1.63;;;9.10;71.60;;;;;;5025777;28;20189;-69
2023/12/26 04:44:49;;;;;;;6.50;1.80;;;9.20;71.30;;;;;;5031609;28;20178;-71
2023/12/26 04:47:14;;;;;;;3.60;1.60;;;9.30;71.10;;;;;;5030546;28;20189;-69
2023/12/26 04:49:40;;;;;;;2.30;1.57;;;9.30;71.10;;;;;;5031087;28;20649;-71
2023/12/26 04:52:06;;;;;;;3.40;2.20;;;9.30;71.30;;;;;;5025399;28;20193;-69
2023/12/26 04:54:31;;;;;;;3.00;1.83;;;9.30;71.00;;;;;;5031019;28;20566;-69
2023/12/26 04:56:57;;;;;;;6.30;2.07;;;9.30;71.00;;;;;;5029138;28;20185;-69
2023/12/26 04:59:22;;;;;;;7.30;2.30;;;9.30;71.00;;;;;;5031348;28;20284;-70
2023/12/26 05:01:48;;;;;;;4.63;1.97;;;9.30;71.30;;;;;;5027119;28;20216;-69
2023/12/26 05:04:13;;;;;;;5.53;2.10;;;9.30;71.10;;;;;;5029468;28;20658;-68
2023/12/26 05:06:39;;;;;;;6.80;2.10;;;9.30;71.40;;;;;;5029773;28;20258;-69
2023/12/26 05:09:05;;;;;;;6.27;1.93;;;9.30;71.30;;;;;;5030259;28;20181;-68
2023/12/26 05:11:31;;;;;;;4.77;1.90;;;9.30;71.30;;;;;;5020095;28;20590;-70
2023/12/26 05:13:56;;;;;;;7.80;2.30;;;9.30;71.10;;;;;;5020836;28;20917;-69
2023/12/26 05:16:22;;;;;;;10.23;2.07;;;9.30;71.10;;;;;;5024797;28;20221;-69
2023/12/26 05:18:47;;;;;;;6.10;1.90;;;9.30;71.10;;;;;;5028539;28;20184;-69
2023/12/26 05:21:21;;;;;;;5.23;1.87;;;9.40;71.30;;;;;;5019285;28;20289;-69
2023/12/26 05:23:47;;;;;;;6.30;1.90;;;9.40;71.00;;;;;;5021251;28;20177;-69
2023/12/26 05:26:16;;;;;;;3.50;1.70;;;9.40;70.80;;;;;;5031918;28;20412;-70
2023/12/26 05:28:41;;;;;;;8.00;2.60;;;9.40;70.80;;;;;;5030882;28;20455;-69
2023/12/26 05:31:07;;;;;;;13.47;2.50;;;9.40;71.00;;;;;;5017507;28;20537;-70
2023/12/26 05:33:34;;;;;;;3.70;2.40;;;9.30;71.00;;;;;;5019462;28;20547;-70
2023/12/26 05:36:01;;;;;;;3.50;1.90;;;9.40;70.80;;;;;;5027973;28;20515;-70
2023/12/26 05:38:26;;;;;;;4.70;1.80;;;9.40;70.80;;;;;;5028022;28;21059;-69
2023/12/26 05:40:52;;;;;;;9.00;2.10;;;9.40;70.70;;;;;;5020873;28;20942;-68
2023/12/26 05:43:18;;;;;;;2.27;1.70;;;9.40;70.50;;;;;;5022049;28;20177;-69
2023/12/26 05:45:44;;;;;;;6.20;2.40;;;9.40;70.50;;;;;;5031947;28;20276;-70
2023/12/26 05:48:09;;;;;;;6.43;2.00;;;9.40;70.50;;;;;;5029211;28;20503;-68
2023/12/26 05:50:35;;;;;;;5.90;2.27;;;9.40;70.50;;;;;;5022260;28;20251;-70
2023/12/26 05:53:02;;;;;;;3.40;1.20;;;9.50;70.50;;;;;;5022719;28;20181;-70
2023/12/26 05:55:27;;;;;;;4.20;1.70;;;9.40;70.50;;;;;;5029592;28;20189;-69
2023/12/26 05:57:53;;;;;;;6.13;2.07;;;9.40;70.50;;;;;;5026494;28;20423;-71
2023/12/26 06:00:19;;;;;;;12.10;4.30;;;9.50;70.50;;;;;;5021128;28;20231;-68
2023/12/26 06:02:45;;;;;;;4.17;2.47;;;9.50;70.50;;;;;;5021124;28;20567;-69
2023/12/26 06:05:10;;;;;;;6.93;2.10;;;9.50;70.40;;;;;;5030057;28;20412;-69
2023/12/26 06:07:36;;;;;;;7.40;2.50;;;9.50;70.70;;;;;;5028504;28;20188;-70
2023/12/26 06:10:02;;;;;;;4.73;2.50;;;9.50;70.70;;;;;;5019722;28;20226;-69
2023/12/26 06:12:28;;;;;;;4.90;2.03;;;9.50;70.50;;;;;;5020444;28;20189;-71
2023/12/26 06:14:54;;;;;;;8.10;2.20;;;9.50;70.50;;;;;;5024302;28;20981;-71
2023/12/26 06:17:21;;;;;;;6.40;2.57;;;9.50;70.50;;;;;;5028476;28;20209;-70
2023/12/26 06:19:47;;;;;;;9.53;2.23;;;9.40;70.50;;;;;;5025606;28;20441;-70
2023/12/26 06:22:13;;;;;;;6.77;1.80;;;9.40;70.80;;;;;;5027208;28;20412;-69
2023/12/26 06:24:39;;;;;;;5.43;1.90;;;9.40;70.70;;;;;;5024432;28;20427;-71
2023/12/26 06:27:05;;;;;;;7.60;1.97;;;9.50;70.70;;;;;;5028547;28;20188;-68
2023/12/26 06:29:31;;;;;;;6.13;2.03;;;9.50;70.50;;;;;;5029362;28;20216;-69
2023/12/26 06:31:57;;;;;;;4.13;2.23;;;9.50;70.50;;;;;;5026292;28;21032;-70
2023/12/26 06:34:23;;;;;;;5.30;1.87;;;9.50;70.50;;;;;;5021660;28;20424;-69
2023/12/26 06:36:49;;;;;;;9.13;3.10;;;9.40;70.70;;;;;;5027994;28;20514;-70
2023/12/26 06:39:15;;;;;;;9.07;2.90;;;9.40;70.70;;;;;;5027003;28;20730;-70
2023/12/26 06:41:42;;;;;;;4.97;2.30;;;9.40;70.40;;;;;;5017649;28;20574;-69
2023/12/26 06:44:08;;;;;;;4.03;1.77;;;9.40;70.70;;;;;;5026668;28;20443;-70
2023/12/26 06:46:40;;;;;;;4.80;2.10;;;9.40;70.80;;;;;;5027622;28;20416;-70
2023/12/26 06:49:05;;;;;;;5.57;2.13;;;9.40;70.80;;;;;;5035537;28;20487;-70
2023/12/26 06:51:31;;;;;;;2.57;1.70;;;9.40;70.80;;;;;;5023113;28;20472;-68
2023/12/26 06:53:57;;;;;;;8.13;2.30;;;9.50;70.50;;;;;;5024464;28;20185;-70
2023/12/26 06:56:22;;;;;;;2.43;1.60;;;9.50;70.50;;;;;;5026487;28;20193;-70
2023/12/26 06:58:48;;;;;;;4.40;2.40;;;9.50;70.40;;;;;;5023543;28;20184;-71
2023/12/26 07:01:14;;;;;;;8.97;2.40;;;9.50;70.50;;;;;;5015425;28;20224;-70
2023/12/26 07:03:39;;;;;;;3.93;1.77;;;9.50;70.50;;;;;;5022248;28;20550;-69
2023/12/26 07:06:05;;;;;;;5.80;2.53;;;9.40;70.50;;;;;;5028572;28;20431;-69
2023/12/26 07:08:31;;;;;;;4.40;2.63;;;9.40;70.80;;;;;;5028212;28;20630;-70
2023/12/26 07:10:56;;;;;;;6.20;2.10;;;9.50;70.70;;;;;;5020647;28;20796;-69
2023/12/26 07:13:23;;;;;;;5.10;2.03;;;9.50;70.70;;;;;;5024726;28;20192;-70
2023/12/26 07:15:51;;;;;;;5.00;3.20;;;9.50;70.70;;;;;;5030715;28;20607;-68
2023/12/26 07:18:17;;;;;;;3.33;2.00;;;9.50;70.50;;;;;;5025354;28;20419;-70
2023/12/26 07:20:42;;;;;;;6.37;2.80;;;9.40;70.80;;;;;;5026218;28;20491;-67
2023/12/26 07:23:08;;;;;;;4.27;2.20;;;9.40;70.80;;;;;;5023648;28;20252;-69
2023/12/26 07:25:34;;;;;;;10.80;2.40;;;9.40;70.80;;;;;;5027594;28;20623;-69
2023/12/26 07:27:59;;;;;;;7.07;2.40;;;9.40;70.80;;;;;;5024212;28;20620;-68
2023/12/26 07:30:25;;;;;;;8.57;2.10;;;9.40;70.80;;;;;;5021246;28;20215;-70
2023/12/26 07:32:50;;;;;;;4.27;2.30;;;9.40;70.80;;;;;;5020878;28;20189;-71
2023/12/26 07:35:16;;;;;;;3.57;1.80;;;9.40;70.80;;;;;;5024421;28;20603;-69
2023/12/26 07:37:42;;;;;;;2.87;2.00;;;9.40;71.00;;;;;;5021813;28;20661;-71
2023/12/26 07:40:08;;;;;;;5.53;2.10;;;9.40;71.30;;;;;;5021176;28;20201;-70
2023/12/26 07:42:34;;;;;;;7.03;2.80;;;9.50;70.80;;;;;;5024694;28;20181;-70
2023/12/26 07:44:59;;;;;;;4.50;1.90;;;9.50;70.70;;;;;;5028093;28;20424;-70
2023/12/26 07:47:25;;;;;;;5.57;2.10;;;9.50;70.80;;;;;;5028363;28;20193;-70
2023/12/26 07:49:51;;;;;;;3.27;1.83;;;9.50;70.80;;;;;;5023514;28;21095;-69
2023/12/26 07:52:17;;;;;;;6.17;2.57;;;9.50;70.80;;;;;;5023296;28;20185;-68
2023/12/26 07:54:43;;;;;;;4.43;2.37;;;9.50;70.70;;;;;;5020263;28;20435;-71
2023/12/26 07:57:08;;;;;;;3.93;2.00;;;9.50;70.70;;;;;;5023258;28;20645;-71
2023/12/26 07:59:34;;;;;;;5.93;2.30;;;9.50;71.10;;;;;;5026987;28;20562;-70
2023/12/26 08:01:59;;;;;;;10.50;2.73;;;9.50;70.50;;;;;;5014190;28;20221;-70
2023/12/26 08:04:25;;;;;;;5.93;2.07;;;9.50;70.50;;;;;;5031482;28;20212;-68
2023/12/26 08:06:51;;;;;;;4.87;2.33;;;9.50;70.70;;;;;;5036815;28;20185;-70
2023/12/26 08:09:17;;;;;;;5.90;2.53;;;9.60;70.70;;;;;;5033332;28;20236;-69
2023/12/26 08:11:43;;;;;;;4.57;2.23;;;9.60;70.50;;;;;;5020308;28;20209;-69
2023/12/26 08:14:09;;;;;;;6.20;2.53;;;9.60;70.40;;;;;;5027586;28;20757;-69
2023/12/26 08:16:35;;;;;;;5.40;2.07;;;9.70;70.40;;;;;;5032208;28;20251;-70
2023/12/26 08:19:02;;;;;;;5.87;2.80;;;9.60;70.50;;;;;;5030868;28;20431;-70
2023/12/26 08:21:27;;;;;;;4.50;2.10;;;9.60;70.70;;;;;;5027689;28;20709;-69
2023/12/26 08:23:53;;;;;;;11.30;2.63;;;9.60;70.70;;;;;;5029949;28;20416;-70
2023/12/26 08:26:19;;;;;;;5.93;2.40;;;9.70;70.20;;;;;;5031073;28;20181;-69
2023/12/26 08:28:44;;;;;;;7.27;2.33;;;9.70;69.80;;;;;;5030242;28;20264;-68
2023/12/26 08:31:10;;;;;;;7.73;2.23;;;9.70;69.80;;;;;;5025390;28;20279;-69
2023/12/26 08:33:37;;;;;;;8.10;2.00;;;9.80;69.80;;;;;;5024828;28;20196;-68
2023/12/26 08:36:03;;;;;;;5.17;2.47;;;9.80;69.70;;;;;;5029024;28;20190;-70
2023/12/26 08:38:29;;;;;;;8.40;2.40;;;9.70;69.70;;;;;;5024306;28;20443;-70
2023/12/26 08:40:55;;;;;;;10.87;2.40;;;9.70;69.90;;;;;;5026484;28;20484;-70
2023/12/26 08:43:22;;;;;;;4.50;1.97;;;9.70;69.90;;;;;;5020999;28;20185;-70
2023/12/26 08:45:47;;;;;;;11.10;2.40;;;9.80;69.80;;;;;;5030789;28;20431;-69
2023/12/26 08:48:13;;;;;;;12.07;2.50;;;9.70;70.10;;;;;;5033830;28;20428;-69
2023/12/26 08:50:39;;;;;;;5.90;2.00;;;9.70;70.10;;;;;;5026574;28;20201;-70
2023/12/26 08:53:05;;;;;;;7.77;2.80;;;9.70;70.20;;;;;;5025215;28;20180;-69
2023/12/26 08:55:30;;;;;;;5.67;2.23;;;9.70;70.20;;;;;;5034061;28;20184;-70
2023/12/26 08:57:57;;;;;;;4.43;2.40;;;9.70;70.20;;;;;;5033800;28;20180;-69
2023/12/26 09:00:23;;;;;;;6.53;2.30;;;9.70;70.10;;;;;;5030449;28;20238;-70
2023/12/26 09:02:49;;;;;;;4.87;1.93;;;9.70;70.10;;;;;;5023519;28;20409;-71
2023/12/26 09:05:14;;;;;;;4.63;2.20;;;9.70;70.10;;;;;;5030576;28;20212;-69
2023/12/26 09:07:40;;;;;;;4.53;2.17;;;9.70;70.10;;;;;;5028920;28;20185;-71
2023/12/26 09:10:06;;;;;;;7.33;2.53;;;9.80;69.90;;;;;;5030334;28;20475;-71
2023/12/26 09:12:32;;;;;;;8.60;2.43;;;9.80;70.10;;;;;;5020142;28;20856;-72
2023/12/26 09:14:58;;;;;;;7.43;2.63;;;9.80;70.10;;;;;;5031093;28;20438;-70
2023/12/26 09:17:24;;;;;;;5.30;2.00;;;9.80;70.20;;;;;;5025447;28;20684;-70
2023/12/26 09:19:50;;;;;;;4.77;1.90;;;9.80;70.20;;;;;;5027730;28;20464;-70
2023/12/26 09:22:15;;;;;;;6.47;2.00;;;9.80;70.10;;;;;;5024897;28;20213;-70
2023/12/26 09:24:44;;;;;;;4.77;2.47;;;9.80;70.20;;;;;;5026048;28;20197;-69
2023/12/26 09:27:10;;;;;;;4.50;1.73;;;9.90;70.20;;;;;;5031198;28;20311;-70
2023/12/26 09:29:36;;;;;;;7.70;1.93;;;9.90;69.90;;;;;;5035140;28;20503;-69
2023/12/26 09:32:01;;;;;;;3.57;1.67;;;9.90;70.10;;;;;;5018560;28;20417;-69
2023/12/26 09:34:27;;;;;;;5.57;2.17;;;9.90;70.40;;;;;;5031774;28;20196;-70
2023/12/26 09:36:53;;;;;;;6.87;1.87;;;9.90;70.20;;;;;;5034023;28;20186;-71
2023/12/26 09:39:19;;;;;;;6.13;2.50;;;9.90;70.40;;;;;;5027821;28;20568;-70
2023/12/26 09:41:53;;;;;;;5.07;2.70;;;9.90;70.40;;;;;;5019317;28;20523;-69
2023/12/26 09:44:20;;;;;;;9.20;2.20;;;10.00;70.40;;;;;;5031115;28;20553;-69
2023/12/26 09:46:46;;;;;;;2.70;1.50;;;9.90;70.40;;;;;;5028930;28;20508;-70
2023/12/26 09:49:12;;;;;;;4.40;1.80;;;10.00;70.50;;;;;;5030940;28;20436;-71
2023/12/26 09:51:44;;;;;;;5.23;2.03;;;9.90;70.50;;;;;;5023424;28;20296;-69
2023/12/26 09:54:12;;;;;;;13.73;2.70;;;10.00;70.50;;;;;;5029583;28;20758;-70
2023/12/26 09:56:41;;;;;;;3.77;1.67;;;10.00;70.50;;;;;;5029928;28;20455;-70
2023/12/26 09:59:07;;;;;;;3.23;1.70;;;10.00;70.50;;;;;;5029973;28;20455;-70
2023/12/26 10:01:33;;;;;;;4.60;1.77;;;10.00;70.40;;;;;;5024647;28;20948;-70
2023/12/26 10:03:59;;;;;;;3.73;2.10;;;10.10;70.50;;;;;;5030713;28;20443;-70
2023/12/26 10:06:25;;;;;;;4.00;1.73;;;10.10;70.20;;;;;;5027694;28;20182;-69
2023/12/26 10:08:51;;;;;;;4.83;1.63;;;10.10;70.20;;;;;;5034136;28;20428;-70
2023/12/26 10:11:17;;;;;;;4.73;2.17;;;10.20;70.20;;;;;;5030721;28;20525;-73
2023/12/26 10:13:52;;;;;;;4.53;1.77;;;10.20;70.20;;;;;;5023492;28;20229;-71
2023/12/26 10:16:18;;;;;;;10.40;2.37;;;10.20;69.90;;;;;;5021687;28;20192;-71
2023/12/26 10:18:44;;;;;;;6.20;1.60;;;10.30;70.10;;;;;;5028991;28;20416;-70
2023/12/26 10:21:09;;;;;;;5.10;1.80;;;10.30;69.80;;;;;;5026194;28;20554;-70
2023/12/26 10:23:35;;;;;;;4.10;1.70;;;10.20;69.90;;;;;;5020214;28;20238;-71
2023/12/26 10:26:02;;;;;;;2.43;1.90;;;10.30;70.20;;;;;;5028972;28;20246;-71
2023/12/26 10:28:28;;;;;;;3.80;1.70;;;10.30;69.90;;;;;;5029660;28;20189;-71
2023/12/26 10:30:54;;;;;;;2.60;1.73;;;10.40;69.80;;;;;;5017810;28;20464;-70
2023/12/26 10:33:26;;;;;;;5.23;1.57;;;10.40;69.50;;;;;;5022476;28;20205;-70
2023/12/26 10:36:04;;;;;;;2.90;1.63;;;10.40;69.80;;;;;;5026027;28;20420;-70
2023/12/26 10:38:29;;;;;;;3.50;1.57;;;10.40;69.90;;;;;;5028149;28;20771;-71
2023/12/26 10:41:00;;;;;;;3.57;1.67;;;10.40;69.90;;;;;;5026928;28;20479;-70
2023/12/26 10:43:29;;;;;;;3.83;1.50;;;10.30;70.20;;;;;;5028275;28;20181;-72
2023/12/26 10:45:58;;;;;;;4.97;1.60;;;10.30;70.20;;;;;;5038464;28;20428;-71
2023/12/26 10:48:27;;;;;;;3.90;2.10;;;10.20;70.50;;;;;;5029496;28;20428;-71
2023/12/26 10:50:55;;;;;;;3.43;1.53;;;10.10;70.70;;;;;;5018721;28;20584;-71
2023/12/26 10:53:24;;;;;;;3.57;2.00;;;10.10;70.80;;;;;;5026936;28;20416;-71
2023/12/26 10:55:50;;;;;;;2.80;1.40;;;10.20;71.10;;;;;;5025437;28;20447;-70
2023/12/26 10:58:32;;;;;;;4.53;1.90;;;10.20;70.70;;;;;;5027139;28;20412;-70
2023/12/26 13:53:05;;;;;;;2.30;1.00;;;10.80;72.10;;;;;;5004152;28;20495;-67
2023/12/26 13:56:08;;;;;;;1.73;1.10;;;10.80;72.30;;;;;;5014296;28;20432;-70
2023/12/26 13:59:11;;;;;;;1.80;1.00;;;10.80;72.30;;;;;;5019744;28;20429;-68
2023/12/26 14:02:14;;;;;;;2.57;1.50;;;10.70;72.40;;;;;;5003310;28;20847;-71
2023/12/26 14:05:17;;;;;;;2.40;1.10;;;10.80;72.60;;;;;;5013090;28;20428;-69
2023/12/26 14:08:21;;;;;;;2.50;1.27;;;10.80;72.60;;;;;;5014034;28;20413;-68
2023/12/26 14:11:26;;;;;;;1.83;1.00;;;10.80;72.60;;;;;;5004020;28;20484;-69
2023/12/26 14:14:29;;;;;;;1.20;0.87;;;10.80;72.90;;;;;;5009531;28;20431;-73
2023/12/26 14:17:33;;;;;;;1.87;1.10;;;10.70;72.60;;;;;;5013728;28;20550;-69
2023/12/26 14:20:36;;;;;;;2.37;1.10;;;10.70;72.90;;;;;;5002249;28;20539;-70
2023/12/26 14:23:39;;;;;;;3.90;1.27;;;10.80;72.90;;;;;;5003844;28;20463;-67
2023/12/26 14:26:42;;;;;;;1.80;1.20;;;10.80;72.70;;;;;;5011899;28;20435;-73
2023/12/26 14:29:45;;;;;;;18.13;10.47;;;10.80;72.70;;;;;;5008606;28;20432;-68
2023/12/26 14:32:48;;;;;;;2.50;1.40;;;10.70;72.90;;;;;;5004210;28;20433;-70
2023/12/26 14:35:51;;;;;;;3.27;1.50;;;10.70;72.90;;;;;;5007774;28;20427;-68
2023/12/26 14:38:54;;;;;;;5.10;1.10;;;10.60;73.00;;;;;;5010042;28;20436;-68
2023/12/26 14:41:58;;;;;;;1.97;1.23;;;10.60;73.20;;;;;;5001283;28;20582;-67
2023/12/26 14:45:01;;;;;;;1.77;1.20;;;10.50;73.50;;;;;;5009220;28;20428;-70
2023/12/26 14:48:04;;;;;;;1.50;1.00;;;10.50;73.60;;;;;;5011784;28;20491;-68
2023/12/26 14:51:08;;;;;;;3.13;1.43;;;10.50;73.60;;;;;;5011564;28;20479;-68
2023/12/26 14:54:15;;;;;;;2.33;1.37;;;10.40;73.70;;;;;;5016363;28;20863;-68
2023/12/26 14:57:18;;;;;;;2.80;1.30;;;10.40;73.90;;;;;;5012508;28;20425;-70
2023/12/26 15:00:21;;;;;;;3.00;1.60;;;10.40;74.00;;;;;;5015436;28;20521;-69
2023/12/26 15:02:47;;;;;;;2.27;1.50;;;10.50;73.90;;;;;;5007701;28;20476;-70
2023/12/26 15:05:13;;;;;;;3.83;1.50;;;10.50;73.90;;;;;;5016362;28;20448;-70
2023/12/26 15:07:38;;;;;;;4.07;1.70;;;10.50;73.90;;;;;;5012511;28;20494;-69
2023/12/26 15:10:05;;;;;;;7.10;1.40;;;10.40;73.90;;;;;;5010874;28;20981;-71
2023/12/26 15:12:31;;;;;;;2.57;1.20;;;10.40;74.20;;;;;;5010651;28;20651;-68
2023/12/26 15:14:57;;;;;;;3.40;1.63;;;10.40;74.20;;;;;;5017496;28;20435;-69
2023/12/26 15:17:23;;;;;;;4.67;1.53;;;10.40;74.20;;;;;;5019153;28;20955;-70
2023/12/26 15:19:48;;;;;;;2.97;1.83;;;10.50;73.90;;;;;;5016409;28;20457;-69
2023/12/26 15:22:15;;;;;;;2.60;1.47;;;10.50;73.90;;;;;;5011812;28;20268;-67
2023/12/26 15:24:41;;;;;;;2.60;1.67;;;10.40;74.20;;;;;;5015688;28;20265;-69
2023/12/26 15:27:06;;;;;;;2.20;1.50;;;10.40;74.20;;;;;;5016604;28;20434;-69
2023/12/26 15:29:32;;;;;;;1.93;1.40;;;10.40;74.20;;;;;;5014472;28;20890;-72
2023/12/26 15:31:58;;;;;;;3.47;1.57;;;10.30;74.30;;;;;;5007660;28;20539;-70
2023/12/26 15:34:24;;;;;;;3.13;1.50;;;10.30;74.60;;;;;;5013061;28;20455;-69
2023/12/26 15:36:49;;;;;;;3.57;1.97;;;10.30;74.50;;;;;;5018392;28;20181;-70
2023/12/26 15:39:15;;;;;;;2.80;1.60;;;10.30;74.50;;;;;;5014572;28;20186;-71
2023/12/26 15:41:41;;;;;;;2.37;1.60;;;10.30;74.50;;;;;;5014330;28;20484;-72
2023/12/26 15:44:07;;;;;;;2.13;1.40;;;10.30;74.50;;;;;;5016276;28;20726;-69
2023/12/26 15:46:33;;;;;;;2.97;1.40;;;10.30;74.50;;;;;;5021834;28;20182;-69
2023/12/26 15:49:00;;;;;;;5.80;2.03;;;10.30;74.50;;;;;;5012532;28;20838;-68
2023/12/26 15:51:25;;;;;;;3.03;2.30;;;10.30;74.50;;;;;;5005733;28;20246;-69
2023/12/26 15:53:52;;;;;;;3.90;1.50;;;10.30;74.30;;;;;;5009340;28;20421;-70
2023/12/26 15:56:29;;;;;;;2.83;1.90;;;10.20;74.60;;;;;;5013281;28;20523;-70